createdAt,value
2018-08-28T00:00:30.932Z,18.71
2018-08-28T00:01:31.063Z,18.70
2018-08-28T00:02:31.200Z,18.61
2018-08-28T00:03:31.415Z,18.63
2018-08-28T00:04:31.451Z,18.70
2018-08-28T00:05:31.586Z,18.61
2018-08-28T00:06:31.730Z,18.70
2018-08-28T00:07:31.892Z,18.76
2018-08-28T00:08:32.024Z,18.81
2018-08-28T00:09:32.172Z,18.76
2018-08-28T00:10:32.311Z,18.83
2018-08-28T00:11:32.472Z,18.78
2018-08-28T00:12:32.597Z,18.94
2018-08-28T00:13:32.740Z,18.93
2018-08-28T00:14:32.879Z,18.88
2018-08-28T00:15:33.016Z,18.98
2018-08-28T00:16:33.142Z,19.05
2018-08-28T00:17:33.278Z,19.05
2018-08-28T00:18:33.421Z,19.05
2018-08-28T00:19:33.554Z,19.07
2018-08-28T00:20:33.711Z,19.07
2018-08-28T00:21:33.849Z,18.94
2018-08-28T00:22:33.991Z,19.00
2018-08-28T00:23:34.148Z,19.07
2018-08-28T00:24:34.260Z,19.05
2018-08-28T00:25:34.401Z,19.07
2018-08-28T00:26:34.543Z,19.08
2018-08-28T00:27:34.696Z,19.04
2018-08-28T00:28:34.878Z,19.07
2018-08-28T00:29:35.025Z,19.07
2018-08-28T00:30:35.152Z,19.09
2018-08-28T00:31:35.288Z,19.05
2018-08-28T00:32:35.443Z,19.04
2018-08-28T00:33:35.577Z,19.04
2018-08-28T00:34:35.728Z,19.07
2018-08-28T00:35:35.884Z,19.01
2018-08-28T00:36:36.045Z,19.01
2018-08-28T00:37:36.183Z,19.01
2018-08-28T00:38:36.324Z,18.98
2018-08-28T00:39:36.459Z,19.07
2018-08-28T00:40:36.603Z,19.01
2018-08-28T00:41:36.734Z,19.09
2018-08-28T00:42:36.876Z,19.05
2018-08-28T00:43:37.010Z,19.04
2018-08-28T00:44:37.151Z,19.07
2018-08-28T00:45:37.284Z,18.96
2018-08-28T00:46:37.424Z,18.94
2018-08-28T00:47:37.561Z,18.93
2018-08-28T00:48:37.698Z,18.98
2018-08-28T00:49:37.837Z,19.05
2018-08-28T00:50:37.979Z,18.98
2018-08-28T00:51:38.117Z,18.83
2018-08-28T00:52:38.292Z,18.89
2018-08-28T00:53:38.425Z,18.89
2018-08-28T00:54:38.563Z,18.93
2018-08-28T00:55:38.705Z,18.96
2018-08-28T00:56:38.840Z,18.96
2018-08-28T00:57:38.971Z,18.94
2018-08-28T00:58:39.114Z,18.98
2018-08-28T00:59:39.256Z,18.94
2018-08-28T01:00:39.391Z,19.01
2018-08-28T01:01:39.532Z,18.86
2018-08-28T01:02:39.665Z,19.07
2018-08-28T01:03:39.799Z,18.97
2018-08-28T01:04:39.942Z,18.94
2018-08-28T01:05:40.077Z,18.85
2018-08-28T01:06:40.217Z,18.93
2018-08-28T01:07:40.371Z,18.93
2018-08-28T01:08:40.507Z,18.93
2018-08-28T01:09:40.649Z,18.82
2018-08-28T01:10:40.796Z,18.89
2018-08-28T01:11:40.932Z,18.93
2018-08-28T01:12:41.085Z,18.78
2018-08-28T01:13:41.206Z,18.94
2018-08-28T01:14:41.422Z,18.86
2018-08-28T01:15:41.496Z,18.88
2018-08-28T01:16:41.633Z,18.79
2018-08-28T01:17:41.867Z,18.79
2018-08-28T01:18:41.924Z,18.78
2018-08-28T01:19:42.064Z,18.82
2018-08-28T01:20:42.222Z,18.81
2018-08-28T01:21:42.357Z,18.83
2018-08-28T01:22:42.489Z,18.83
2018-08-28T01:23:42.671Z,18.83
2018-08-28T01:24:42.806Z,18.78
2018-08-28T01:25:42.943Z,18.71
2018-08-28T01:26:43.083Z,18.81
2018-08-28T01:27:43.239Z,18.83
2018-08-28T01:28:43.370Z,18.81
2018-08-28T01:29:43.505Z,18.78
2018-08-28T01:30:43.647Z,18.79
2018-08-28T01:31:43.784Z,18.79
2018-08-28T01:32:43.915Z,18.78
2018-08-28T01:33:44.051Z,18.70
2018-08-28T01:34:44.217Z,18.82
2018-08-28T01:35:44.349Z,18.82
2018-08-28T01:36:44.487Z,18.86
2018-08-28T01:37:44.624Z,18.81
2018-08-28T01:38:44.768Z,18.78
2018-08-28T01:39:44.902Z,18.75
2018-08-28T01:40:45.044Z,18.71
2018-08-28T01:41:45.190Z,18.76
2018-08-28T01:42:45.343Z,18.76
2018-08-28T01:43:45.480Z,18.76
2018-08-28T01:44:45.612Z,18.71
2018-08-28T01:45:45.749Z,18.78
2018-08-28T01:46:45.899Z,18.71
2018-08-28T01:47:46.034Z,18.70
2018-08-28T01:48:46.174Z,18.78
2018-08-28T01:49:46.317Z,18.79
2018-08-28T01:50:46.463Z,18.70
2018-08-28T01:51:46.600Z,18.76
2018-08-28T01:52:46.738Z,18.78
2018-08-28T01:53:46.918Z,18.66
2018-08-28T01:54:47.019Z,18.70
2018-08-28T01:55:47.153Z,18.71
2018-08-28T01:56:47.287Z,18.71
2018-08-28T01:57:47.424Z,18.71
2018-08-28T01:58:47.617Z,18.68
2018-08-28T01:59:47.756Z,18.71
2018-08-28T02:00:47.896Z,18.70
2018-08-28T02:01:48.030Z,18.78
2018-08-28T02:02:48.181Z,18.70
2018-08-28T02:03:48.311Z,18.66
2018-08-28T02:04:48.456Z,18.60
2018-08-28T02:05:48.592Z,18.67
2018-08-28T02:06:48.726Z,18.70
2018-08-28T02:07:48.868Z,18.66
2018-08-28T02:08:49.009Z,18.57
2018-08-28T02:09:49.143Z,18.66
2018-08-28T02:10:49.284Z,18.67
2018-08-28T02:11:49.423Z,18.64
2018-08-28T02:12:49.562Z,18.57
2018-08-28T02:13:49.697Z,18.61
2018-08-28T02:14:49.838Z,18.51
2018-08-28T02:15:49.987Z,18.61
2018-08-28T02:16:50.148Z,18.52
2018-08-28T02:17:50.285Z,18.60
2018-08-28T02:18:50.423Z,18.58
2018-08-28T02:19:50.565Z,18.58
2018-08-28T02:20:50.703Z,18.60
2018-08-28T02:21:50.841Z,18.57
2018-08-28T02:22:50.976Z,18.54
2018-08-28T02:23:51.120Z,18.63
2018-08-28T02:24:51.257Z,18.49
2018-08-28T02:25:51.411Z,18.49
2018-08-28T02:26:51.549Z,18.58
2018-08-28T02:27:51.686Z,18.43
2018-08-28T02:28:51.834Z,18.56
2018-08-28T02:29:51.965Z,18.56
2018-08-28T02:30:52.113Z,18.56
2018-08-28T02:31:52.255Z,18.56
2018-08-28T02:32:52.388Z,18.48
2018-08-28T02:33:52.524Z,18.49
2018-08-28T02:34:52.657Z,18.51
2018-08-28T02:35:52.792Z,18.56
2018-08-28T02:36:52.934Z,18.57
2018-08-28T02:37:53.078Z,18.46
2018-08-28T02:38:53.216Z,18.51
2018-08-28T02:39:53.371Z,18.46
2018-08-28T02:40:53.506Z,18.41
2018-08-28T02:41:53.647Z,18.48
2018-08-28T02:42:53.837Z,18.51
2018-08-28T02:43:53.948Z,18.48
2018-08-28T02:44:54.080Z,18.51
2018-08-28T02:45:54.224Z,18.48
2018-08-28T02:46:54.363Z,18.48
2018-08-28T02:47:54.492Z,18.51
2018-08-28T02:48:54.634Z,18.34
2018-08-28T02:49:54.790Z,18.41
2018-08-28T02:50:54.924Z,18.41
2018-08-28T02:51:55.057Z,18.43
2018-08-28T02:52:55.194Z,18.34
2018-08-28T02:53:55.341Z,18.45
2018-08-28T02:54:55.478Z,18.31
2018-08-28T02:55:55.613Z,18.39
2018-08-28T02:56:55.784Z,18.48
2018-08-28T02:57:55.922Z,18.45
2018-08-28T02:58:56.047Z,18.49
2018-08-28T02:59:56.193Z,18.42
2018-08-28T03:00:56.345Z,18.39
2018-08-28T03:01:56.478Z,18.51
2018-08-28T03:02:56.672Z,18.39
2018-08-28T03:03:56.756Z,18.48
2018-08-28T03:04:56.971Z,18.52
2018-08-28T03:05:57.061Z,18.43
2018-08-28T03:06:57.204Z,18.54
2018-08-28T03:07:57.338Z,18.58
2018-08-28T03:08:57.491Z,18.48
2018-08-28T03:09:57.629Z,18.41
2018-08-28T03:10:57.769Z,18.45
2018-08-28T03:11:57.912Z,18.49
2018-08-28T03:12:58.051Z,18.48
2018-08-28T03:13:58.187Z,18.42
2018-08-28T03:14:58.338Z,18.46
2018-08-28T03:15:58.528Z,18.43
2018-08-28T03:16:58.603Z,18.38
2018-08-28T03:17:58.760Z,18.30
2018-08-28T03:18:58.895Z,18.34
2018-08-28T03:19:59.032Z,18.30
2018-08-28T03:20:59.174Z,18.28
2018-08-28T03:21:59.318Z,18.18
2018-08-28T03:22:59.456Z,18.23
2018-08-28T03:23:59.594Z,18.18
2018-08-28T03:24:59.762Z,18.15
2018-08-28T03:25:59.892Z,18.11
2018-08-28T03:27:00.034Z,18.06
2018-08-28T03:28:00.194Z,18.21
2018-08-28T03:29:00.346Z,18.18
2018-08-28T03:30:00.470Z,18.13
2018-08-28T03:31:00.627Z,18.06
2018-08-28T03:32:00.763Z,18.05
2018-08-28T03:33:00.927Z,18.06
2018-08-28T03:34:01.069Z,18.03
2018-08-28T03:35:01.204Z,18.03
2018-08-28T03:36:01.337Z,17.99
2018-08-28T03:37:01.469Z,17.94
2018-08-28T03:38:01.604Z,18.01
2018-08-28T03:39:01.742Z,17.83
2018-08-28T03:40:01.884Z,17.87
2018-08-28T03:41:02.021Z,17.88
2018-08-28T03:42:02.160Z,17.83
2018-08-28T03:43:02.297Z,17.84
2018-08-28T03:44:02.436Z,17.76
2018-08-28T03:45:02.577Z,17.81
2018-08-28T03:46:02.707Z,17.83
2018-08-28T03:47:02.847Z,17.71
2018-08-28T03:48:02.989Z,17.72
2018-08-28T03:49:03.131Z,17.69
2018-08-28T03:50:03.304Z,17.69
2018-08-28T03:51:03.464Z,17.69
2018-08-28T03:52:03.602Z,17.53
2018-08-28T03:53:03.738Z,17.39
2018-08-28T03:54:03.874Z,17.46
2018-08-28T03:55:04.016Z,17.35
2018-08-28T03:56:04.152Z,17.27
2018-08-28T03:57:04.291Z,17.30
2018-08-28T03:58:04.435Z,17.30
2018-08-28T03:59:04.567Z,17.19
2018-08-28T04:00:04.698Z,17.24
2018-08-28T04:01:04.839Z,17.25
2018-08-28T04:02:04.977Z,17.17
2018-08-28T04:03:05.107Z,17.20
2018-08-28T04:04:05.249Z,17.12
2018-08-28T04:05:05.395Z,17.12
2018-08-28T04:06:05.535Z,17.09
2018-08-28T04:07:05.677Z,17.13
2018-08-28T04:08:05.813Z,17.12
2018-08-28T04:09:05.964Z,17.04
2018-08-28T04:10:06.101Z,17.12
2018-08-28T04:11:06.238Z,17.01
2018-08-28T04:12:06.373Z,16.91
2018-08-28T04:13:06.515Z,16.98
2018-08-28T04:14:06.661Z,16.94
2018-08-28T04:15:06.797Z,16.97
2018-08-28T04:16:06.941Z,16.87
2018-08-28T04:17:07.094Z,16.90
2018-08-28T04:18:07.216Z,16.88
2018-08-28T04:19:07.355Z,16.91
2018-08-28T04:20:07.488Z,16.84
2018-08-28T04:21:07.647Z,16.91
2018-08-28T04:22:07.779Z,16.79
2018-08-28T04:23:07.921Z,16.94
2018-08-28T04:24:08.060Z,16.95
2018-08-28T04:25:08.229Z,16.91
2018-08-28T04:26:08.355Z,16.94
2018-08-28T04:27:08.495Z,16.92
2018-08-28T04:28:08.641Z,16.90
2018-08-28T04:29:08.789Z,16.92
2018-08-28T04:30:08.922Z,16.95
2018-08-28T04:31:09.068Z,16.82
2018-08-28T04:32:09.234Z,16.79
2018-08-28T04:33:09.370Z,16.72
2018-08-28T04:34:09.507Z,16.76
2018-08-28T04:35:09.654Z,16.72
2018-08-28T04:36:09.807Z,16.69
2018-08-28T04:37:09.943Z,16.76
2018-08-28T04:38:10.082Z,16.74
2018-08-28T04:39:10.250Z,16.70
2018-08-28T04:40:10.382Z,16.65
2018-08-28T04:41:10.524Z,16.77
2018-08-28T04:42:10.680Z,16.70
2018-08-28T04:43:10.813Z,16.76
2018-08-28T04:44:10.955Z,16.72
2018-08-28T04:45:11.085Z,16.73
2018-08-28T04:46:11.213Z,16.74
2018-08-28T04:47:11.347Z,16.77
2018-08-28T04:48:11.480Z,16.70
2018-08-28T04:49:11.621Z,16.73
2018-08-28T04:50:11.777Z,16.77
2018-08-28T04:51:11.912Z,16.69
2018-08-28T04:52:12.051Z,16.76
2018-08-28T04:53:12.215Z,16.72
2018-08-28T04:54:12.460Z,16.77
2018-08-28T04:55:12.486Z,16.67
2018-08-28T04:56:12.642Z,16.65
2018-08-28T04:57:12.773Z,16.70
2018-08-28T04:58:12.906Z,16.76
2018-08-28T04:59:13.053Z,16.69
2018-08-28T05:00:13.188Z,16.61
2018-08-28T05:01:13.343Z,16.69
2018-08-28T05:02:13.479Z,16.73
2018-08-28T05:03:13.618Z,16.65
2018-08-28T05:04:13.759Z,16.67
2018-08-28T05:05:13.913Z,16.67
2018-08-28T05:06:14.052Z,16.58
2018-08-28T05:07:14.190Z,16.67
2018-08-28T05:08:14.337Z,16.61
2018-08-28T05:09:14.473Z,16.69
2018-08-28T05:10:14.603Z,16.55
2018-08-28T05:11:14.752Z,16.55
2018-08-28T05:12:14.890Z,16.43
2018-08-28T05:13:15.053Z,16.43
2018-08-28T05:14:15.205Z,16.37
2018-08-28T05:15:15.345Z,16.46
2018-08-28T05:16:15.476Z,16.51
2018-08-28T05:17:15.616Z,16.47
2018-08-28T05:18:15.758Z,16.40
2018-08-28T05:19:15.931Z,16.49
2018-08-28T05:20:16.030Z,16.54
2018-08-28T05:21:16.169Z,16.55
2018-08-28T05:22:16.311Z,16.54
2018-08-28T05:23:16.443Z,16.49
2018-08-28T05:24:16.582Z,16.58
2018-08-28T05:25:16.721Z,16.61
2018-08-28T05:26:16.852Z,16.57
2018-08-28T05:27:16.988Z,16.58
2018-08-28T05:28:17.126Z,16.58
2018-08-28T05:29:17.265Z,16.58
2018-08-28T05:30:17.478Z,16.55
2018-08-28T05:31:17.487Z,16.58
2018-08-28T05:32:17.625Z,16.42
2018-08-28T05:33:17.759Z,16.44
2018-08-28T05:34:17.936Z,16.51
2018-08-28T05:35:18.071Z,16.47
2018-08-28T05:36:18.206Z,16.59
2018-08-28T05:37:18.339Z,16.52
2018-08-28T05:38:18.477Z,16.47
2018-08-28T05:39:18.617Z,16.51
2018-08-28T05:40:19.323Z,16.57
2018-08-28T05:41:18.854Z,16.55
2018-08-28T05:42:18.995Z,16.59
2018-08-28T05:43:19.133Z,16.61
2018-08-28T05:44:19.269Z,16.67
2018-08-28T05:45:19.398Z,16.61
2018-08-28T05:46:19.530Z,16.64
2018-08-28T05:47:19.666Z,16.59
2018-08-28T05:48:19.837Z,16.67
2018-08-28T05:49:20.842Z,16.72
2018-08-28T05:50:20.196Z,16.64
2018-08-28T05:51:20.329Z,16.74
2018-08-28T05:52:20.471Z,16.79
2018-08-28T05:53:20.603Z,16.77
2018-08-28T05:54:20.742Z,16.67
2018-08-28T05:55:20.911Z,16.76
2018-08-28T05:56:21.155Z,16.72
2018-08-28T05:57:21.177Z,16.79
2018-08-28T05:58:21.312Z,16.83
2018-08-28T05:59:21.484Z,16.74
2018-08-28T06:00:21.609Z,16.83
2018-08-28T06:01:21.752Z,16.90
2018-08-28T06:02:22.592Z,16.79
2018-08-28T06:03:22.268Z,16.73
2018-08-28T06:04:22.185Z,16.91
2018-08-28T06:05:22.322Z,16.80
2018-08-28T06:06:22.482Z,16.80
2018-08-28T06:07:22.622Z,16.88
2018-08-28T06:08:22.772Z,16.91
2018-08-28T06:09:22.895Z,16.90
2018-08-28T06:10:23.026Z,16.92
2018-08-28T06:11:23.167Z,16.97
2018-08-28T06:12:23.422Z,16.95
2018-08-28T06:13:23.566Z,16.95
2018-08-28T06:14:23.577Z,16.87
2018-08-28T06:15:23.714Z,16.98
2018-08-28T06:16:23.870Z,16.97
2018-08-28T06:17:24.008Z,17.01
2018-08-28T06:18:24.147Z,16.98
2018-08-28T06:19:25.121Z,16.98
2018-08-28T06:20:24.418Z,16.98
2018-08-28T06:21:24.551Z,17.09
2018-08-28T06:22:24.693Z,17.06
2018-08-28T06:23:24.855Z,17.04
2018-08-28T06:24:24.991Z,17.04
2018-08-28T06:25:25.122Z,17.16
2018-08-28T06:26:25.313Z,17.16
2018-08-28T06:27:25.407Z,17.14
2018-08-28T06:28:25.541Z,17.14
2018-08-28T06:29:25.673Z,17.14
2018-08-28T06:30:25.816Z,17.14
2018-08-28T06:31:25.983Z,17.16
2018-08-28T06:32:26.117Z,17.24
2018-08-28T06:33:26.256Z,17.20
2018-08-28T06:34:26.396Z,17.12
2018-08-28T06:35:26.549Z,17.19
2018-08-28T06:36:26.788Z,17.14
2018-08-28T06:37:26.828Z,17.19
2018-08-28T06:38:26.948Z,17.20
2018-08-28T06:39:27.102Z,17.20
2018-08-28T06:40:27.228Z,17.30
2018-08-28T06:41:27.365Z,17.34
2018-08-28T06:42:27.508Z,17.35
2018-08-28T06:43:27.685Z,17.25
2018-08-28T06:44:27.793Z,17.34
2018-08-28T06:45:27.935Z,17.32
2018-08-28T06:46:28.070Z,17.39
2018-08-28T06:47:28.235Z,17.37
2018-08-28T06:48:28.368Z,17.43
2018-08-28T06:49:28.553Z,17.46
2018-08-28T06:50:28.645Z,17.49
2018-08-28T06:51:28.795Z,17.34
2018-08-28T06:52:28.944Z,17.22
2018-08-28T06:53:29.096Z,17.32
2018-08-28T06:54:29.224Z,17.45
2018-08-28T06:55:29.364Z,17.39
2018-08-28T06:56:29.500Z,17.49
2018-08-28T06:57:29.670Z,17.45
2018-08-28T06:58:29.804Z,17.49
2018-08-28T06:59:29.940Z,17.46
2018-08-28T07:00:30.083Z,17.45
2018-08-28T07:01:30.257Z,17.52
2018-08-28T07:02:30.505Z,17.56
2018-08-28T07:03:30.518Z,17.53
2018-08-28T07:04:30.650Z,17.57
2018-08-28T07:05:30.797Z,17.62
2018-08-28T07:06:30.919Z,17.54
2018-08-28T07:07:31.057Z,17.49
2018-08-28T07:08:31.238Z,17.43
2018-08-28T07:09:31.421Z,17.35
2018-08-28T07:10:31.555Z,17.34
2018-08-28T07:11:31.694Z,17.10
2018-08-28T07:12:31.829Z,17.14
2018-08-28T07:13:32.008Z,17.13
2018-08-28T07:14:32.144Z,17.07
2018-08-28T07:15:32.281Z,17.06
2018-08-28T07:16:32.414Z,17.16
2018-08-28T07:17:32.598Z,17.09
2018-08-28T07:18:32.824Z,17.04
2018-08-28T07:19:32.822Z,17.06
2018-08-28T07:20:32.954Z,17.02
2018-08-28T07:21:33.103Z,17.14
2018-08-28T07:22:33.236Z,17.20
2018-08-28T07:23:33.379Z,17.27
2018-08-28T07:24:33.514Z,17.38
2018-08-28T07:25:33.694Z,17.24
2018-08-28T07:26:33.803Z,17.27
2018-08-28T07:27:33.950Z,17.30
2018-08-28T07:28:34.089Z,17.27
2018-08-28T07:29:34.217Z,17.30
2018-08-28T07:30:34.355Z,17.30
2018-08-28T07:31:34.500Z,17.28
2018-08-28T07:32:34.635Z,17.28
2018-08-28T07:33:34.768Z,17.32
2018-08-28T07:34:34.907Z,17.45
2018-08-28T07:35:35.054Z,17.39
2018-08-28T07:36:35.190Z,17.45
2018-08-28T07:37:35.539Z,17.50
2018-08-28T07:38:35.458Z,17.52
2018-08-28T07:39:35.606Z,17.52
2018-08-28T07:40:35.743Z,17.54
2018-08-28T07:41:35.881Z,17.54
2018-08-28T07:42:36.568Z,17.59
2018-08-28T07:43:36.229Z,17.56
2018-08-28T07:44:36.376Z,17.65
2018-08-28T07:45:36.509Z,17.52
2018-08-28T07:46:36.645Z,17.56
2018-08-28T07:47:36.789Z,17.59
2018-08-28T07:48:36.928Z,17.65
2018-08-28T07:49:37.065Z,17.50
2018-08-28T07:50:37.204Z,17.50
2018-08-28T07:51:37.335Z,17.59
2018-08-28T07:52:37.484Z,17.54
2018-08-28T07:53:37.619Z,17.63
2018-08-28T07:54:37.758Z,17.69
2018-08-28T07:55:37.904Z,17.71
2018-08-28T07:56:38.038Z,17.72
2018-08-28T07:57:38.179Z,17.88
2018-08-28T07:58:38.314Z,17.93
2018-08-28T07:59:38.454Z,17.84
2018-08-28T08:00:38.627Z,17.96
2018-08-28T08:01:38.762Z,17.93
2018-08-28T08:02:38.905Z,18.02
2018-08-28T08:03:39.048Z,17.99
2018-08-28T08:04:39.187Z,18.02
2018-08-28T08:05:39.329Z,18.08
2018-08-28T08:06:39.466Z,17.97
2018-08-28T08:07:39.604Z,18.09
2018-08-28T08:08:39.761Z,18.09
2018-08-28T08:09:39.898Z,18.12
2018-08-28T08:10:40.040Z,18.18
2018-08-28T08:11:40.177Z,18.15
2018-08-28T08:12:40.326Z,18.23
2018-08-28T08:13:40.460Z,18.24
2018-08-28T08:14:40.602Z,18.23
2018-08-28T08:15:40.763Z,18.21
2018-08-28T08:16:40.889Z,18.17
2018-08-28T08:17:41.021Z,18.21
2018-08-28T08:18:41.159Z,18.26
2018-08-28T08:19:41.328Z,18.27
2018-08-28T08:20:41.458Z,18.23
2018-08-28T08:21:41.595Z,18.27
2018-08-28T08:22:41.743Z,18.21
2018-08-28T08:23:41.889Z,18.28
2018-08-28T08:24:42.025Z,18.33
2018-08-28T08:25:42.159Z,18.41
2018-08-28T08:26:42.295Z,18.51
2018-08-28T08:27:42.566Z,18.45
2018-08-28T08:28:42.531Z,18.54
2018-08-28T08:29:42.673Z,18.60
2018-08-28T08:30:42.814Z,18.68
2018-08-28T08:31:43.008Z,18.68
2018-08-28T08:32:43.583Z,18.78
2018-08-28T08:33:43.270Z,18.75
2018-08-28T08:34:43.411Z,18.81
2018-08-28T08:35:43.584Z,18.83
2018-08-28T08:36:43.722Z,18.81
2018-08-28T08:37:43.853Z,18.96
2018-08-28T08:38:43.999Z,18.88
2018-08-28T08:39:44.156Z,19.01
2018-08-28T08:40:44.289Z,18.89
2018-08-28T08:41:44.433Z,19.12
2018-08-28T08:42:44.567Z,19.07
2018-08-28T08:43:44.721Z,19.09
2018-08-28T08:44:44.867Z,19.13
2018-08-28T08:45:44.999Z,19.16
2018-08-28T08:46:45.140Z,18.96
2018-08-28T08:47:45.287Z,18.97
2018-08-28T08:48:45.427Z,18.97
2018-08-28T08:49:45.565Z,19.04
2018-08-28T08:50:45.712Z,19.00
2018-08-28T08:51:45.846Z,19.01
2018-08-28T08:52:45.985Z,19.07
2018-08-28T08:53:46.122Z,19.07
2018-08-28T08:54:46.321Z,19.00
2018-08-28T08:55:46.457Z,19.16
2018-08-28T08:56:46.589Z,19.24
2018-08-28T08:57:46.731Z,19.20
2018-08-28T08:58:46.921Z,19.31
2018-08-28T08:59:47.095Z,19.34
2018-08-28T09:00:47.236Z,19.39
2018-08-28T09:01:47.376Z,19.42
2018-08-28T09:02:47.560Z,19.41
2018-08-28T09:03:47.683Z,19.52
2018-08-28T09:04:47.822Z,19.54
2018-08-28T09:05:47.958Z,19.59
2018-08-28T09:06:48.124Z,19.56
2018-08-28T09:07:48.260Z,19.63
2018-08-28T09:08:48.400Z,19.53
2018-08-28T09:09:48.533Z,19.54
2018-08-28T09:10:48.693Z,19.64
2018-08-28T09:11:48.914Z,19.70
2018-08-28T09:12:48.926Z,19.72
2018-08-28T09:13:49.099Z,19.86
2018-08-28T09:14:49.265Z,19.79
2018-08-28T09:15:49.453Z,19.93
2018-08-28T09:16:49.591Z,19.96
2018-08-28T09:17:49.735Z,19.97
2018-08-28T09:18:49.882Z,19.97
2018-08-28T09:19:50.019Z,20.05
2018-08-28T09:20:50.160Z,20.07
2018-08-28T09:21:50.306Z,20.18
2018-08-28T09:22:50.459Z,20.11
2018-08-28T09:23:50.591Z,20.19
2018-08-28T09:24:50.733Z,20.18
2018-08-28T09:25:50.906Z,20.18
2018-08-28T09:26:51.046Z,20.19
2018-08-28T09:27:51.190Z,20.19
2018-08-28T09:28:51.337Z,20.11
2018-08-28T09:29:51.477Z,20.02
2018-08-28T09:30:51.613Z,20.09
2018-08-28T09:31:51.754Z,20.08
2018-08-28T09:32:51.894Z,20.19
2018-08-28T09:33:52.030Z,20.25
2018-08-28T09:34:52.167Z,20.25
2018-08-28T09:35:52.302Z,20.30
2018-08-28T09:36:52.458Z,20.34
2018-08-28T09:37:52.603Z,20.42
2018-08-28T09:38:52.820Z,20.53
2018-08-28T09:39:52.873Z,20.48
2018-08-28T09:40:53.011Z,20.56
2018-08-28T09:41:53.150Z,20.71
2018-08-28T09:42:53.798Z,20.68
2018-08-28T09:45:25.426Z,20.80
2018-08-28T09:46:25.561Z,20.83
2018-08-28T09:47:25.701Z,20.83
2018-08-28T09:48:25.912Z,20.92
2018-08-28T09:49:25.983Z,20.98
2018-08-28T09:50:26.212Z,20.95
2018-08-28T09:51:26.254Z,20.98
2018-08-28T09:52:26.395Z,21.01
2018-08-28T09:53:26.530Z,20.95
2018-08-28T09:54:26.669Z,21.00
2018-08-28T09:55:26.809Z,20.93
2018-08-28T09:56:26.974Z,21.07
2018-08-28T09:57:27.085Z,21.07
2018-08-28T09:58:27.223Z,20.98
2018-08-28T09:59:27.363Z,21.07
2018-08-28T10:00:27.507Z,21.10
2018-08-28T10:01:27.650Z,21.08
2018-08-28T10:02:27.796Z,21.11
2018-08-28T10:03:27.933Z,21.18
2018-08-28T10:04:28.076Z,21.18
2018-08-28T10:05:28.215Z,21.14
2018-08-28T10:06:28.355Z,21.19
2018-08-28T10:07:28.494Z,21.14
2018-08-28T10:08:28.642Z,21.13
2018-08-28T10:09:28.782Z,21.22
2018-08-28T10:10:28.924Z,21.26
2018-08-28T10:11:29.066Z,21.22
2018-08-28T10:12:29.236Z,21.26
2018-08-28T10:13:29.369Z,21.29
2018-08-28T10:14:29.508Z,21.37
2018-08-28T10:15:29.648Z,21.30
2018-08-28T10:16:29.819Z,21.29
2018-08-28T10:17:30.034Z,21.37
2018-08-28T10:18:30.090Z,21.40
2018-08-28T10:19:30.228Z,21.37
2018-08-28T10:20:30.394Z,21.38
2018-08-28T10:21:30.537Z,21.47
2018-08-28T10:22:30.679Z,21.44
2018-08-28T10:23:30.820Z,21.44
2018-08-28T10:24:30.985Z,21.41
2018-08-28T10:25:31.121Z,21.41
2018-08-28T10:26:31.260Z,21.47
2018-08-28T10:27:31.454Z,21.44
2018-08-28T10:28:31.624Z,21.47
2018-08-28T10:29:31.821Z,21.53
2018-08-28T10:30:31.931Z,21.65
2018-08-28T10:31:31.984Z,21.73
2018-08-28T10:32:32.140Z,21.69
2018-08-28T10:33:32.271Z,21.71
2018-08-28T10:34:32.414Z,21.73
2018-08-28T10:35:32.554Z,21.81
2018-08-28T10:36:32.715Z,21.78
2018-08-28T10:37:32.845Z,21.84
2018-08-28T10:38:33.002Z,21.85
2018-08-28T10:39:33.143Z,21.96
2018-08-28T10:40:33.320Z,21.93
2018-08-28T10:41:33.538Z,21.97
2018-08-28T10:42:33.553Z,21.97
2018-08-28T10:43:33.694Z,21.97
2018-08-28T10:44:33.878Z,22.07
2018-08-28T10:45:34.014Z,22.06
2018-08-28T10:46:34.283Z,22.13
2018-08-28T10:47:34.298Z,22.16
2018-08-28T10:48:34.454Z,22.13
2018-08-28T10:49:34.582Z,22.07
2018-08-28T10:50:34.723Z,22.07
2018-08-28T10:51:34.869Z,22.04
2018-08-28T10:52:35.014Z,22.06
2018-08-28T10:53:35.152Z,22.07
2018-08-28T10:54:35.292Z,22.04
2018-08-28T10:55:35.433Z,22.04
2018-08-28T10:56:35.605Z,22.06
2018-08-28T10:57:35.757Z,22.12
2018-08-28T10:58:35.951Z,22.09
2018-08-28T10:59:36.028Z,22.13
2018-08-28T11:00:36.158Z,22.13
2018-08-28T11:01:36.298Z,22.15
2018-08-28T11:02:36.434Z,22.13
2018-08-28T11:03:36.596Z,22.04
2018-08-28T11:04:36.766Z,22.03
2018-08-28T11:05:36.883Z,22.01
2018-08-28T11:06:37.060Z,21.97
2018-08-28T11:07:37.187Z,21.78
2018-08-28T11:08:37.382Z,21.75
2018-08-28T11:09:37.468Z,21.66
2018-08-28T11:10:37.628Z,21.58
2018-08-28T11:11:37.767Z,21.51
2018-08-28T11:12:37.915Z,21.55
2018-08-28T11:13:38.074Z,21.45
2018-08-28T11:14:38.216Z,21.56
2018-08-28T11:15:38.355Z,21.66
2018-08-28T11:16:38.491Z,21.73
2018-08-28T11:17:38.670Z,21.77
2018-08-28T11:18:38.810Z,21.73
2018-08-28T11:19:38.953Z,21.75
2018-08-28T11:20:39.111Z,21.81
2018-08-28T11:21:39.273Z,22.03
2018-08-28T11:22:39.404Z,22.16
2018-08-28T11:23:39.547Z,22.19
2018-08-28T11:24:39.690Z,22.18
2018-08-28T11:25:39.840Z,22.15
2018-08-28T11:26:39.978Z,22.19
2018-08-28T11:27:40.129Z,22.22
2018-08-28T11:28:40.276Z,22.31
2018-08-28T11:29:40.423Z,22.53
2018-08-28T11:30:40.562Z,22.43
2018-08-28T11:31:40.701Z,22.46
2018-08-28T11:32:40.856Z,22.40
2018-08-28T11:33:41.007Z,22.55
2018-08-28T11:34:41.149Z,22.83
2018-08-28T11:35:41.304Z,22.91
2018-08-28T11:36:41.432Z,22.98
2018-08-28T11:37:41.570Z,23.22
2018-08-28T11:38:41.792Z,23.15
2018-08-28T11:39:41.796Z,23.29
2018-08-28T11:40:41.941Z,23.28
2018-08-28T11:41:42.088Z,23.46
2018-08-28T11:42:42.228Z,23.61
2018-08-28T11:43:42.375Z,23.69
2018-08-28T11:44:42.536Z,23.89
2018-08-28T11:45:42.687Z,24.16
2018-08-28T11:46:42.831Z,24.25
2018-08-28T11:47:42.975Z,24.33
2018-08-28T11:48:43.117Z,24.55
2018-08-28T11:49:43.256Z,24.66
2018-08-28T11:50:43.403Z,24.79
2018-08-28T11:51:43.547Z,24.90
2018-08-28T11:52:43.848Z,24.84
2018-08-28T11:53:43.842Z,24.74
2018-08-28T11:54:43.984Z,24.82
2018-08-28T11:55:44.139Z,24.84
2018-08-28T11:56:44.278Z,24.89
2018-08-28T11:57:44.425Z,24.76
2018-08-28T11:58:44.569Z,24.76
2018-08-28T11:59:44.718Z,24.71
2018-08-28T12:00:44.866Z,24.89
2018-08-28T12:01:45.007Z,24.85
2018-08-28T12:02:45.146Z,24.96
2018-08-28T12:03:45.301Z,25.03
2018-08-28T12:04:45.494Z,25.18
2018-08-28T12:05:45.591Z,25.34
2018-08-28T12:06:45.750Z,25.51
2018-08-28T12:07:45.961Z,25.53
2018-08-28T12:08:46.026Z,25.63
2018-08-28T12:09:46.165Z,25.71
2018-08-28T12:10:46.315Z,25.85
2018-08-28T12:11:46.481Z,25.96
2018-08-28T12:12:46.633Z,25.98
2018-08-28T12:13:46.777Z,26.03
2018-08-28T12:14:46.943Z,26.08
2018-08-28T12:15:47.092Z,25.93
2018-08-28T12:16:47.244Z,26.10
2018-08-28T12:17:47.392Z,26.10
2018-08-28T12:18:47.542Z,26.19
2018-08-28T12:19:47.753Z,26.10
2018-08-28T12:20:47.887Z,26.20
2018-08-28T12:21:48.022Z,26.26
2018-08-28T12:22:48.169Z,26.33
2018-08-28T12:23:48.322Z,26.30
2018-08-28T12:24:48.464Z,26.39
2018-08-28T12:25:48.620Z,26.31
2018-08-28T12:26:48.906Z,26.49
2018-08-28T12:27:48.957Z,26.52
2018-08-28T12:28:49.102Z,26.58
2018-08-28T12:29:49.410Z,26.65
2018-08-28T12:30:49.421Z,26.76
2018-08-28T12:31:49.564Z,26.83
2018-08-28T12:32:49.770Z,26.79
2018-08-28T12:33:49.916Z,26.89
2018-08-28T12:34:50.098Z,26.90
2018-08-28T12:35:50.243Z,26.95
2018-08-28T12:36:50.456Z,27.04
2018-08-28T12:37:50.559Z,27.04
2018-08-28T12:38:50.735Z,27.07
2018-08-28T12:39:50.894Z,27.07
2018-08-28T12:40:51.047Z,27.12
2018-08-28T12:41:51.260Z,27.22
2018-08-28T12:42:51.284Z,27.15
2018-08-28T12:43:51.435Z,27.10
2018-08-28T12:44:51.583Z,27.19
2018-08-28T12:45:51.737Z,27.19
2018-08-28T12:46:51.939Z,27.23
2018-08-28T12:47:52.063Z,27.00
2018-08-28T12:48:52.220Z,26.89
2018-08-28T12:49:52.363Z,26.95
2018-08-28T12:50:52.608Z,26.73
2018-08-28T12:51:52.733Z,26.43
2018-08-28T12:52:52.892Z,26.42
2018-08-28T12:53:53.048Z,26.52
2018-08-28T12:54:53.278Z,26.68
2018-08-28T12:55:53.370Z,26.68